»·PEaware :: N551GL KRAL-L52

N551GL :: KRAL-L52

FLIGHT INFORMATION

Flight Status: Arrived
Operator: Privately registered:
United States
More flights under this callsign
Pilot: Georg L. (13308)
Aircraft: CIRRUS SR-22 TURBO
(S22T)
More flights by this aircraft type
Origin: KRAL Riverside Mun
United States
Destination: L52 Oceano Co
United States
More flights between these airports :: More routes between these airports
Route: PDZ V186 FIM V386 RZS V12 GVO T261 FABEG
File this flight plan on PilotEdge
Remarks:
Altitude:
(Current/Filed)
10,000ft
Speed:
(Current/Filed)
182kts
Departed: 04-Oct-20 07:24 AM
Arrived: 04-Oct-20 08:24 AM
Distance/Time
Traveled:
172nm/0:59
Distance/Time
To Go:
Arrived

Flight Plot

Page will automatically refresh every two minutes.

Flight plan parsing failed; only flown route is shown


Map Options




Map Legend


Flown Route
Filed Route
Departure Airport
Arrival Airport
Navaid (VOR, NDB)
Fix

Horizontal Profiles

Position Reports

Time Latitude Longitude Heading Altitude Ground
Speed
04-Oct-20 06:56 33.950106 -117.442874 220 818ft 0kts
04-Oct-20 06:57 33.950106 -117.442874 220 818ft 0kts
04-Oct-20 06:58 33.950106 -117.442874 220 818ft 0kts
04-Oct-20 06:59 33.950106 -117.442874 220 818ft 0kts
04-Oct-20 07:00 33.950106 -117.442874 220 818ft 0kts
04-Oct-20 07:01 33.950106 -117.442874 220 818ft 0kts
04-Oct-20 07:02 33.950106 -117.442874 220 818ft 0kts
04-Oct-20 07:03 33.950106 -117.442874 220 818ft 0kts
04-Oct-20 07:04 33.950089 -117.442888 214 818ft 0kts
04-Oct-20 07:05 33.950089 -117.442888 214 818ft 0kts
04-Oct-20 07:06 33.950089 -117.442888 214 818ft 0kts
04-Oct-20 07:07 33.950089 -117.442888 214 818ft 0kts
04-Oct-20 07:08 33.950089 -117.442888 214 818ft 0kts
04-Oct-20 07:09 33.950089 -117.442888 214 818ft 0kts
04-Oct-20 07:10 33.950089 -117.442888 214 818ft 0kts
04-Oct-20 07:11 33.950089 -117.442888 214 818ft 0kts
04-Oct-20 07:12 33.950089 -117.442888 214 818ft 0kts
04-Oct-20 07:13 33.950089 -117.442888 214 818ft 0kts
04-Oct-20 07:14 33.950089 -117.442888 214 818ft 0kts
04-Oct-20 07:15 33.950335 -117.442743 34 818ft 7kts
04-Oct-20 07:16 33.950535 -117.440909 89 818ft 11kts
04-Oct-20 07:17 33.950087 -117.436331 102 818ft 17kts
04-Oct-20 07:19 33.949955 -117.435017 36 818ft 0kts
04-Oct-20 07:20 33.949955 -117.435017 36 818ft 0kts
04-Oct-20 07:21 33.949955 -117.435017 36 818ft 0kts
04-Oct-20 07:22 33.949955 -117.435017 36 818ft 0kts
04-Oct-20 07:23 33.949955 -117.435017 36 818ft 0kts
04-Oct-20 07:24 33.951932 -117.441958 279 911ft 91kts
04-Oct-20 07:25 33.956985 -117.476726 278 2293ft 116kts
04-Oct-20 07:26 33.963882 -117.520612 279 3418ft 137kts
04-Oct-20 07:27 33.970728 -117.565902 279 4719ft 134kts
04-Oct-20 07:28 33.977195 -117.609489 279 5959ft 133kts
04-Oct-20 07:29 33.984619 -117.661796 279 6009ft 174kts
04-Oct-20 07:30 33.992859 -117.720627 279 6001ft 179kts
04-Oct-20 07:31 34.005284 -117.778462 289 5999ft 179kts
04-Oct-20 07:32 34.022649 -117.834914 290 6000ft 179kts
04-Oct-20 07:33 34.040040 -117.891212 290 5996ft 179kts
04-Oct-20 07:34 34.057410 -117.947568 290 5992ft 179kts
04-Oct-20 07:35 34.073014 -117.998331 290 6889ft 153kts
04-Oct-20 07:36 34.087982 -118.047050 290 7576ft 156kts
04-Oct-20 07:36 34.100519 -118.087944 290 8152ft 156kts
04-Oct-20 07:38 34.117346 -118.142879 290 9260ft 147kts
04-Oct-20 07:38 34.129383 -118.182221 289 9952ft 152kts
04-Oct-20 07:39 34.145612 -118.235387 289 10032ft 180kts
04-Oct-20 07:40 34.163289 -118.293372 289 10038ft 185kts
04-Oct-20 07:41 34.181107 -118.351953 289 10049ft 186kts
04-Oct-20 07:42 34.198937 -118.410683 289 10061ft 186kts
04-Oct-20 07:43 34.216815 -118.469700 289 10073ft 187kts
04-Oct-20 07:44 34.236349 -118.529141 292 10087ft 187kts
04-Oct-20 07:45 34.257189 -118.589848 292 10091ft 187kts
04-Oct-20 07:46 34.277931 -118.650372 291 10091ft 187kts
04-Oct-20 07:47 34.298705 -118.711112 291 10091ft 187kts
04-Oct-20 07:48 34.320230 -118.774180 291 10091ft 188kts
04-Oct-20 07:49 34.342005 -118.838072 291 10079ft 189kts
04-Oct-20 07:50 34.360587 -118.903344 281 10052ft 187kts
04-Oct-20 07:51 34.372391 -118.970792 281 10023ft 186kts
04-Oct-20 07:52 34.383741 -119.035793 281 9996ft 186kts
04-Oct-20 07:53 34.394739 -119.098974 281 9990ft 185kts
04-Oct-20 07:54 34.406172 -119.164869 280 9990ft 186kts
04-Oct-20 07:55 34.417830 -119.232302 280 10018ft 185kts
04-Oct-20 07:56 34.429467 -119.299869 281 10019ft 186kts
04-Oct-20 07:57 34.441102 -119.367596 281 10018ft 187kts
04-Oct-20 07:58 34.452724 -119.435502 280 10018ft 187kts
04-Oct-20 07:59 34.464264 -119.503179 280 10018ft 187kts
04-Oct-20 08:00 34.475842 -119.571317 280 10018ft 187kts
04-Oct-20 08:01 34.487326 -119.639119 280 10018ft 187kts
04-Oct-20 08:02 34.498823 -119.707272 280 10017ft 187kts
04-Oct-20 08:03 34.509836 -119.775704 272 10020ft 188kts
04-Oct-20 08:04 34.514532 -119.843356 273 10018ft 188kts
04-Oct-20 08:05 34.519123 -119.910343 273 10018ft 188kts
04-Oct-20 08:06 34.523502 -119.974733 273 10036ft 187kts
04-Oct-20 08:07 34.527796 -120.038435 273 10036ft 188kts
04-Oct-20 08:08 34.547848 -120.092996 324 10060ft 187kts
04-Oct-20 08:09 34.589714 -120.131626 322 10050ft 189kts
04-Oct-20 08:10 34.631806 -120.171572 321 10045ft 188kts
04-Oct-20 08:11 34.677913 -120.215514 322 9264ft 206kts
04-Oct-20 08:12 34.723361 -120.258892 322 9031ft 187kts
04-Oct-20 08:13 34.750785 -120.317558 294 8643ft 200kts
04-Oct-20 08:14 34.777496 -120.385509 299 7576ft 206kts
04-Oct-20 08:15 34.806669 -120.452177 299 6490ft 203kts
04-Oct-20 08:16 34.842871 -120.509206 336 5380ft 195kts
04-Oct-20 08:17 34.891683 -120.538542 335 4367ft 191kts
04-Oct-20 08:18 34.942311 -120.568673 335 3492ft 179kts
04-Oct-20 08:19 34.988963 -120.594962 359 3473ft 162kts
04-Oct-20 08:20 35.040831 -120.587369 8 2342ft 185kts
04-Oct-20 08:21 35.092188 -120.598306 303 1189ft 173kts
04-Oct-20 08:22 35.083476 -120.619740 96 787ft 90kts
04-Oct-20 08:23 35.102302 -120.623804 299 17ft 14kts
04-Oct-20 08:24 35.103038 -120.624265 300 17ft 3kts
04-Oct-20 08:25 35.103328 -120.624461 32 17ft 0kts
04-Oct-20 08:26 35.103431 -120.624632 222 17ft 3kts
04-Oct-20 08:27 35.103407 -120.624651 212 17ft 0kts
04-Oct-20 08:28 35.103407 -120.624651 212 17ft 0kts
04-Oct-20 08:29 35.103407 -120.624651 212 17ft 0kts
04-Oct-20 08:30 35.103407 -120.624651 212 17ft 0kts
04-Oct-20 08:31 35.103407 -120.624651 212 17ft 0kts
04-Oct-20 08:32 35.103407 -120.624651 212 17ft 0kts
04-Oct-20 08:33 35.103407 -120.624651 212 17ft 0kts
04-Oct-20 08:34 35.103407 -120.624651 212 17ft 0kts
04-Oct-20 08:35 35.103407 -120.624651 212 17ft 0kts
04-Oct-20 08:36 35.103407 -120.624651 212 17ft 0kts

Navigation Log

Ident Type
Flight plan parsing failed, navigation log unavailable